Terminal Aerodrome Forecast
Issued by NWS

Home | Current Version | Previous Version | Text Only | Print | Product List | Glossary On
Versions: 1 2 3 4 5 6 7 8 9 10 11 12 13 14 15 16 17
887
FTUS43 KGRR 091733
TAFMKG
TAF
KMKG 091733Z 0918/1018 33012G22KT 4SM -SHSN OVC021
      TEMPO 0918/0922 2SM -SHSN OVC015
     FM092200 32012KT 4SM -SHSN OVC025
     FM101500 33012G22KT 4SM -SHSN OVC025=

USA.gov is the U.S. government's official web portal to all federal, state and local government web resources and services.